Terminal Aerodrome Forecast
Issued by NWS Buffalo, NY

Current Version | Previous Version | Text Only | Print | Product List | Glossary On
Versions: 1 2 3 4 5 6 7 8 9 10 11 12 13 14 15 16 17 18 19 20 21 22 23 24 25 26 27 28 29
077
FTUS41 KBUF 300622 AAA
TAFBUF
TAF AMD
KBUF 300622Z 3006/3106 20007KT 5SM -SHRA VCTS BKN050CB
      TEMPO 3006/3008 25015KT 3SM TSRA BKN035CB
     FM301400 21010KT P6SM VCTS BKN070CB
     FM301700 23016G25KT P6SM SCT250
     FM302300 23010KT P6SM FEW250
     FM310300 21008KT P6SM SCT090=

USA.gov is the U.S. government's official web portal to all federal, state and local government web resources and services.